Time;durP1;ratioP1;P1;durP2;ratioP2;P2;SDS_P1;SDS_P2;PMS_P1;PMS_P2;Temp;Humidity;BMP_temperature;BMP_pressure;BME280_temperature;BME280_humidity;BME280_pressure;Samples;Min_cycle;Max_cycle;Signal;HPM_P1;HPM_P2
2021/09/22 00:01:13;;;;;;;9.82;8.93;;;;;;;;;;5094405;28;20024;-79
2021/09/22 00:03:39;;;;;;;13.02;8.77;;;;;;;;;;5094456;28;20415;-79
2021/09/22 00:06:05;;;;;;;9.25;8.35;;;;;;;;;;5094580;28;20381;-80
2021/09/22 00:08:31;;;;;;;10.57;8.48;;;;;;;;;;5094211;28;20024;-80
2021/09/22 00:10:57;;;;;;;9.82;8.40;;;;;;;;;;5093881;28;20028;-80
2021/09/22 00:13:23;;;;;;;8.82;7.95;;;;;;;;;;5094538;28;20116;-80
2021/09/22 00:15:49;;;;;;;11.65;10.48;;;;;;;;;;5094340;28;20021;-80
2021/09/22 00:18:15;;;;;;;10.27;9.05;;;;;;;;;;5093785;28;20074;-80
2021/09/22 00:20:41;;;;;;;9.07;8.05;;;;;;;;;;5093869;28;20028;-80
2021/09/22 00:23:07;;;;;;;9.27;8.23;;;;;;;;;;5094213;28;20024;-80
2021/09/22 00:25:33;;;;;;;8.82;7.95;;;;;;;;;;5093957;28;20029;-80
2021/09/22 00:28:00;;;;;;;9.43;8.52;;;;;;;;;;5093613;28;20607;-80
2021/09/22 00:30:27;;;;;;;9.68;8.23;;;;;;;;;;5094312;28;20022;-80
2021/09/22 00:32:53;;;;;;;8.30;7.47;;;;;;;;;;5093661;28;20028;-80
2021/09/22 00:35:19;;;;;;;7.78;7.07;;;;;;;;;;5094165;28;20107;-80
2021/09/22 00:37:45;;;;;;;8.30;7.53;;;;;;;;;;5093661;28;20043;-80
2021/09/22 00:40:11;;;;;;;9.02;8.15;;;;;;;;;;5093087;28;20055;-80
2021/09/22 00:42:37;;;;;;;9.23;8.32;;;;;;;;;;5093518;28;20378;-80
2021/09/22 00:45:05;;;;;;;9.85;8.85;;;;;;;;;;5094417;28;20099;-80
2021/09/22 00:47:31;;;;;;;10.13;8.68;;;;;;;;;;5093917;28;20024;-80
2021/09/22 00:49:57;;;;;;;9.02;7.63;;;;;;;;;;5094916;28;20024;-79
2021/09/22 00:52:23;;;;;;;9.27;8.30;;;;;;;;;;5097557;28;20027;-80
2021/09/22 00:54:49;;;;;;;8.57;7.68;;;;;;;;;;5097534;28;20020;-80
2021/09/22 00:57:15;;;;;;;9.43;8.43;;;;;;;;;;5097304;28;20056;-79
2021/09/22 00:59:41;;;;;;;8.60;7.80;;;;;;;;;;5097704;28;20028;-80
2021/09/22 01:02:08;;;;;;;10.68;8.63;;;;;;;;;;5097218;28;20451;-80
2021/09/22 01:04:34;;;;;;;9.60;8.32;;;;;;;;;;5097611;28;20027;-80
2021/09/22 01:07:00;;;;;;;9.00;8.25;;;;;;;;;;5097621;28;20024;-80
2021/09/22 01:09:27;;;;;;;9.32;8.45;;;;;;;;;;5097028;28;20035;-80
2021/09/22 01:11:53;;;;;;;8.07;7.28;;;;;;;;;;5097313;28;20028;-80
2021/09/22 01:14:21;;;;;;;9.90;7.45;;;;;;;;;;5097041;28;20066;-79
2021/09/22 01:16:48;;;;;;;9.75;8.82;;;;;;;;;;5097718;28;20027;-80
2021/09/22 01:19:14;;;;;;;8.93;8.02;;;;;;;;;;5097132;28;20028;-80
2021/09/22 01:21:55;;;;;;;11.18;8.20;;;;;;;;;;5096930;28;20461;-80
2021/09/22 01:24:21;;;;;;;8.85;8.05;;;;;;;;;;5097033;28;20028;-80
2021/09/22 01:26:48;;;;;;;8.90;8.02;;;;;;;;;;5096858;28;20541;-80
2021/09/22 01:29:14;;;;;;;9.48;8.48;;;;;;;;;;5097042;28;20028;-80
2021/09/22 01:31:40;;;;;;;9.73;7.53;;;;;;;;;;5096890;28;20035;-80
2021/09/22 01:34:06;;;;;;;8.77;8.02;;;;;;;;;;5096712;28;20016;-80
2021/09/22 01:36:32;;;;;;;9.18;8.38;;;;;;;;;;5096625;28;20450;-80
2021/09/22 01:38:59;;;;;;;7.97;7.18;;;;;;;;;;5096789;28;20483;-80
2021/09/22 01:41:25;;;;;;;8.35;7.55;;;;;;;;;;5096929;28;20098;-80
2021/09/22 01:43:51;;;;;;;9.50;8.50;;;;;;;;;;5096627;28;20024;-80
2021/09/22 01:46:17;;;;;;;7.95;7.25;;;;;;;;;;5096132;28;20412;-80
2021/09/22 01:48:43;;;;;;;8.75;7.95;;;;;;;;;;5096403;28;20378;-80
2021/09/22 01:51:09;;;;;;;8.90;7.88;;;;;;;;;;5096099;28;20031;-80
2021/09/22 01:53:36;;;;;;;8.70;7.80;;;;;;;;;;5095921;28;20359;-79
2021/09/22 01:56:02;;;;;;;9.80;7.68;;;;;;;;;;5096318;28;20031;-80
2021/09/22 01:58:28;;;;;;;8.82;8.02;;;;;;;;;;5096549;28;20016;-79
2021/09/22 02:00:58;;;;;;;8.93;8.07;;;;;;;;;;5096262;28;20032;-80
2021/09/22 02:03:24;;;;;;;8.02;7.22;;;;;;;;;;5096241;28;20054;-79
2021/09/22 02:05:50;;;;;;;8.88;7.97;;;;;;;;;;5095960;28;20024;-80
2021/09/22 02:08:16;;;;;;;8.32;7.53;;;;;;;;;;5096622;28;20069;-80
2021/09/22 02:10:42;;;;;;;11.60;7.57;;;;;;;;;;5095991;28;20028;-79
2021/09/22 02:13:08;;;;;;;8.73;7.80;;;;;;;;;;5095951;28;20063;-79
2021/09/22 02:15:35;;;;;;;10.65;6.97;;;;;;;;;;5096196;28;20115;-79
2021/09/22 02:18:01;;;;;;;7.72;6.93;;;;;;;;;;5095925;28;20513;-80
2021/09/22 02:20:27;;;;;;;8.50;7.53;;;;;;;;;;5095669;28;20428;-80
2021/09/22 02:22:53;;;;;;;8.25;7.43;;;;;;;;;;5095807;28;20046;-80
2021/09/22 02:25:19;;;;;;;8.95;7.78;;;;;;;;;;5095689;28;20470;-79
2021/09/22 02:27:45;;;;;;;7.80;7.07;;;;;;;;;;5095417;28;20393;-80
2021/09/22 02:30:12;;;;;;;7.45;6.15;;;;;;;;;;5095569;28;20024;-80
2021/09/22 02:32:38;;;;;;;10.88;7.38;;;;;;;;;;5095389;28;20382;-80
2021/09/22 02:35:05;;;;;;;7.53;6.90;;;;;;;;;;5095361;28;20115;-80
2021/09/22 02:37:31;;;;;;;6.95;6.25;;;;;;;;;;5095649;28;20031;-79
2021/09/22 02:39:57;;;;;;;10.43;7.25;;;;;;;;;;5095704;28;20093;-80
2021/09/22 02:42:23;;;;;;;8.10;7.07;;;;;;;;;;5095311;28;20038;-80
2021/09/22 02:44:49;;;;;;;6.90;6.25;;;;;;;;;;5095507;28;20023;-79
2021/09/22 02:47:15;;;;;;;6.45;5.78;;;;;;;;;;5095584;28;20031;-80
2021/09/22 02:49:42;;;;;;;9.18;5.95;;;;;;;;;;5095174;28;20069;-80
2021/09/22 02:52:08;;;;;;;7.30;6.60;;;;;;;;;;5095267;28;20024;-80
2021/09/22 02:54:34;;;;;;;6.43;5.82;;;;;;;;;;5095818;28;20028;-80
2021/09/22 02:57:00;;;;;;;6.70;5.90;;;;;;;;;;5095011;28;20063;-79
2021/09/22 02:59:26;;;;;;;7.13;6.53;;;;;;;;;;5095321;28;20073;-80
2021/09/22 03:01:52;;;;;;;6.05;5.45;;;;;;;;;;5095311;28;20059;-80
2021/09/22 03:04:18;;;;;;;5.93;5.32;;;;;;;;;;5094645;28;20028;-80
2021/09/22 03:06:44;;;;;;;7.35;6.10;;;;;;;;;;5095195;28;20028;-81
2021/09/22 03:09:10;;;;;;;6.45;5.85;;;;;;;;;;5095125;28;20381;-80
2021/09/22 03:11:36;;;;;;;7.28;6.57;;;;;;;;;;5094923;28;20031;-80
2021/09/22 03:14:03;;;;;;;7.30;6.20;;;;;;;;;;5094113;28;20016;-79
2021/09/22 03:16:31;;;;;;;6.45;5.85;;;;;;;;;;5094840;28;20052;-80
2021/09/22 03:18:57;;;;;;;7.25;6.50;;;;;;;;;;5094559;28;20032;-81
2021/09/22 03:21:24;;;;;;;9.73;6.40;;;;;;;;;;5094824;28;20043;-81
2021/09/22 03:23:50;;;;;;;6.43;5.80;;;;;;;;;;5094878;28;20151;-81
2021/09/22 03:26:16;;;;;;;6.30;5.70;;;;;;;;;;5094649;28;20028;-80
2021/09/22 03:28:42;;;;;;;6.75;5.75;;;;;;;;;;5094778;28;20020;-80
2021/09/22 03:31:08;;;;;;;7.35;6.03;;;;;;;;;;5094718;28;20032;-81
2021/09/22 03:33:34;;;;;;;6.15;5.63;;;;;;;;;;5094178;28;20030;-81
2021/09/22 03:36:00;;;;;;;5.82;5.32;;;;;;;;;;5094595;28;20028;-81
2021/09/22 03:38:26;;;;;;;6.63;5.38;;;;;;;;;;5094363;28;20461;-81
2021/09/22 03:40:53;;;;;;;9.23;6.03;;;;;;;;;;5094406;28;20097;-81
2021/09/22 03:43:19;;;;;;;6.28;5.55;;;;;;;;;;5094290;28;20043;-81
2021/09/22 03:45:45;;;;;;;10.50;5.80;;;;;;;;;;5094617;28;20027;-81
2021/09/22 03:48:11;;;;;;;7.03;6.28;;;;;;;;;;5093794;28;20481;-81
2021/09/22 03:50:37;;;;;;;6.03;5.53;;;;;;;;;;5094512;28;20035;-81
2021/09/22 03:53:03;;;;;;;6.13;5.53;;;;;;;;;;5094608;28;20024;-80
2021/09/22 03:55:29;;;;;;;6.10;5.57;;;;;;;;;;5094483;28;20031;-80
2021/09/22 03:57:55;;;;;;;6.43;5.10;;;;;;;;;;5094569;28;20048;-80
2021/09/22 04:00:21;;;;;;;5.38;4.88;;;;;;;;;;5094127;28;20121;-81
2021/09/22 04:02:47;;;;;;;5.97;5.47;;;;;;;;;;5094163;28;20032;-80
2021/09/22 04:05:14;;;;;;;6.68;5.80;;;;;;;;;;5094348;28;20118;-80
2021/09/22 04:07:40;;;;;;;5.55;5.07;;;;;;;;;;5094502;28;20063;-81
2021/09/22 04:10:06;;;;;;;5.78;5.28;;;;;;;;;;5093903;28;20024;-81
2021/09/22 04:12:32;;;;;;;5.40;4.88;;;;;;;;;;5094386;28;20107;-80
2021/09/22 04:14:58;;;;;;;6.13;5.18;;;;;;;;;;5094522;28;20026;-80
2021/09/22 04:17:24;;;;;;;5.20;4.57;;;;;;;;;;5094115;28;20024;-80
2021/09/22 04:19:50;;;;;;;5.20;4.78;;;;;;;;;;5093958;28;20028;-80
2021/09/22 04:22:16;;;;;;;5.28;4.78;;;;;;;;;;5093870;28;20489;-80
2021/09/22 04:24:42;;;;;;;6.13;5.30;;;;;;;;;;5096512;28;20180;-80
2021/09/22 04:27:08;;;;;;;5.75;5.22;;;;;;;;;;5098386;28;20024;-81
2021/09/22 04:29:35;;;;;;;7.47;5.60;;;;;;;;;;5098252;28;20056;-81
2021/09/22 04:32:01;;;;;;;9.13;5.72;;;;;;;;;;5098136;28;20020;-80
2021/09/22 04:34:27;;;;;;;4.72;4.32;;;;;;;;;;5097717;28;20054;-80
2021/09/22 04:36:53;;;;;;;5.85;5.35;;;;;;;;;;5098220;28;20419;-81
2021/09/22 04:39:19;;;;;;;6.80;5.75;;;;;;;;;;5098513;28;20085;-81
2021/09/22 04:41:45;;;;;;;4.88;4.47;;;;;;;;;;5098095;28;20034;-80
2021/09/22 04:44:11;;;;;;;5.78;5.25;;;;;;;;;;5097751;28;20101;-81
2021/09/22 04:46:37;;;;;;;4.95;4.55;;;;;;;;;;5098080;28;20024;-81
2021/09/22 04:49:03;;;;;;;5.13;4.63;;;;;;;;;;5097828;28;20024;-80
2021/09/22 04:51:29;;;;;;;5.13;4.70;;;;;;;;;;5097897;28;20027;-81
2021/09/22 04:53:55;;;;;;;5.70;5.20;;;;;;;;;;5097665;28;20103;-81
2021/09/22 04:56:21;;;;;;;4.55;4.18;;;;;;;;;;5097226;28;20055;-79
2021/09/22 04:58:47;;;;;;;4.88;4.47;;;;;;;;;;5096240;28;20027;-78
2021/09/22 05:01:13;;;;;;;4.88;4.18;;;;;;;;;;5097303;28;20024;-79
2021/09/22 05:03:39;;;;;;;4.88;4.38;;;;;;;;;;5096814;28;20024;-79
2021/09/22 05:06:05;;;;;;;11.45;5.05;;;;;;;;;;5096814;28;20069;-80
2021/09/22 05:08:31;;;;;;;6.72;5.38;;;;;;;;;;5096584;28;20032;-80
2021/09/22 05:10:57;;;;;;;10.25;4.55;;;;;;;;;;5097025;28;20024;-81
2021/09/22 05:13:24;;;;;;;6.75;4.32;;;;;;;;;;5096892;28;20028;-77
2021/09/22 05:15:50;;;;;;;7.20;4.60;;;;;;;;;;5096964;28;20031;-82
2021/09/22 05:18:16;;;;;;;5.43;4.93;;;;;;;;;;5096106;28;20016;-81
2021/09/22 05:20:42;;;;;;;20.73;4.05;;;;;;;;;;5097459;28;20020;-79
2021/09/22 05:23:08;;;;;;;6.53;4.57;;;;;;;;;;5096766;28;20032;-77
2021/09/22 05:25:35;;;;;;;7.25;4.60;;;;;;;;;;5096703;28;20031;-80
2021/09/22 05:28:01;;;;;;;5.30;4.15;;;;;;;;;;5096676;28;20110;-81
2021/09/22 05:30:27;;;;;;;7.22;4.10;;;;;;;;;;5096383;28;20035;-76
2021/09/22 05:32:53;;;;;;;5.68;3.88;;;;;;;;;;5096244;28;20546;-79
2021/09/22 05:35:19;;;;;;;6.85;4.65;;;;;;;;;;5096205;28;20063;-80
2021/09/22 05:37:48;;;;;;;8.38;5.13;;;;;;;;;;5095978;28;20481;-80
2021/09/22 05:40:14;;;;;;;5.43;4.95;;;;;;;;;;5096216;28;20020;-82
2021/09/22 05:42:40;;;;;;;5.68;5.07;;;;;;;;;;5096505;28;20040;-82
2021/09/22 05:45:06;;;;;;;9.13;4.82;;;;;;;;;;5097098;28;20067;-83
2021/09/22 05:47:32;;;;;;;7.70;5.38;;;;;;;;;;5096064;28;20024;-82
2021/09/22 05:49:58;;;;;;;7.25;5.72;;;;;;;;;;5096534;28;20070;-82
2021/09/22 05:52:25;;;;;;;7.95;5.28;;;;;;;;;;5096307;28;20059;-82
2021/09/22 05:54:52;;;;;;;11.43;5.10;;;;;;;;;;5096266;28;20035;-83
2021/09/22 05:57:18;;;;;;;10.10;5.85;;;;;;;;;;5096550;28;20101;-82
2021/09/22 05:59:44;;;;;;;9.43;5.40;;;;;;;;;;5095944;28;20028;-83
2021/09/22 06:02:11;;;;;;;9.85;5.00;;;;;;;;;;5096159;28;20028;-83
2021/09/22 06:04:37;;;;;;;8.85;5.25;;;;;;;;;;5096331;28;20125;-86
2021/09/22 06:07:03;;;;;;;6.63;4.78;;;;;;;;;;5096353;28;20031;-83
2021/09/22 06:09:29;;;;;;;9.82;4.75;;;;;;;;;;5095820;28;20020;-83
2021/09/22 06:11:55;;;;;;;7.95;5.35;;;;;;;;;;5095905;28;20032;-82
2021/09/22 06:14:21;;;;;;;10.02;5.32;;;;;;;;;;5095362;28;20032;-83
2021/09/22 06:16:47;;;;;;;6.18;4.88;;;;;;;;;;5095715;28;20020;-83
2021/09/22 06:19:13;;;;;;;9.13;5.00;;;;;;;;;;5096142;28;20473;-83
2021/09/22 06:21:39;;;;;;;6.45;4.97;;;;;;;;;;5096307;28;20558;-83
2021/09/22 06:24:05;;;;;;;6.20;4.88;;;;;;;;;;5095235;28;20414;-83
2021/09/22 06:26:31;;;;;;;7.75;5.22;;;;;;;;;;5096335;28;20377;-80
2021/09/22 06:28:58;;;;;;;6.88;4.28;;;;;;;;;;5095531;28;20100;-83
2021/09/22 06:31:24;;;;;;;5.05;4.50;;;;;;;;;;5095617;28;20024;-83
2021/09/22 06:33:50;;;;;;;5.68;4.60;;;;;;;;;;5095356;28;20027;-83
2021/09/22 06:36:16;;;;;;;4.95;4.38;;;;;;;;;;5095199;28;20137;-82
2021/09/22 06:38:42;;;;;;;4.75;4.25;;;;;;;;;;5095420;28;20031;-83
2021/09/22 06:41:08;;;;;;;5.30;4.32;;;;;;;;;;5095210;28;20062;-86
2021/09/22 06:43:34;;;;;;;4.85;4.40;;;;;;;;;;5095488;28;20034;-86
2021/09/22 06:46:00;;;;;;;4.82;4.32;;;;;;;;;;5095180;28;20424;-82
2021/09/22 06:48:26;;;;;;;6.32;4.72;;;;;;;;;;5094835;28;20109;-86
2021/09/22 06:50:52;;;;;;;4.88;4.47;;;;;;;;;;5095634;28;20028;-83
2021/09/22 06:53:18;;;;;;;6.13;5.53;;;;;;;;;;5094997;28;20035;-84
2021/09/22 06:55:44;;;;;;;5.65;5.15;;;;;;;;;;5095136;28;20115;-83
2021/09/22 06:58:11;;;;;;;4.82;4.20;;;;;;;;;;5094554;28;20048;-82
2021/09/22 07:00:37;;;;;;;8.90;5.40;;;;;;;;;;5094363;28;20026;-82
2021/09/22 07:03:11;;;;;;;5.53;5.03;;;;;;;;;;5094888;28;20374;-80
2021/09/22 07:05:37;;;;;;;5.65;4.63;;;;;;;;;;5095312;28;20020;-82
2021/09/22 07:08:03;;;;;;;5.07;4.53;;;;;;;;;;5094410;28;20027;-82
2021/09/22 07:10:31;;;;;;;5.60;5.05;;;;;;;;;;5095314;28;20016;-77
2021/09/22 07:12:57;;;;;;;6.93;3.92;;;;;;;;;;5093980;28;20127;-84
2021/09/22 07:15:23;;;;;;;8.00;5.18;;;;;;;;;;5095880;28;20016;-84
2021/09/22 07:17:50;;;;;;;5.70;5.05;;;;;;;;;;5097377;28;20032;-83
2021/09/22 07:20:16;;;;;;;16.08;4.95;;;;;;;;;;5097666;28;20035;-80
2021/09/22 07:22:42;;;;;;;14.43;5.70;;;;;;;;;;5096734;28;20063;-81
2021/09/22 07:25:08;;;;;;;12.43;5.13;;;;;;;;;;5097191;28;20416;-81
2021/09/22 07:27:34;;;;;;;6.43;4.88;;;;;;;;;;5097688;28;20020;-83
2021/09/22 07:30:00;;;;;;;9.77;6.32;;;;;;;;;;5097249;28;20453;-80
2021/09/22 07:32:27;;;;;;;9.50;7.18;;;;;;;;;;5097708;28;20061;-84
2021/09/22 07:34:53;;;;;;;12.30;6.85;;;;;;;;;;5097651;28;20378;-82
2021/09/22 07:37:19;;;;;;;14.70;7.03;;;;;;;;;;5097734;28;20031;-84
2021/09/22 07:39:46;;;;;;;11.77;7.07;;;;;;;;;;5097419;28;20031;-84
2021/09/22 07:42:12;;;;;;;12.30;7.10;;;;;;;;;;5097486;28;20098;-84
2021/09/22 07:44:40;;;;;;;12.32;6.93;;;;;;;;;;5097341;28;20067;-85
2021/09/22 07:47:06;;;;;;;10.38;7.57;;;;;;;;;;5097450;28;20028;-81
2021/09/22 07:49:32;;;;;;;13.32;7.65;;;;;;;;;;5097514;28;20056;-84
2021/09/22 07:51:58;;;;;;;11.45;6.45;;;;;;;;;;5097413;28;20106;-80
2021/09/22 07:54:25;;;;;;;12.50;6.95;;;;;;;;;;5096296;28;20252;-79
2021/09/22 07:56:51;;;;;;;8.07;5.03;;;;;;;;;;5095093;28;20069;-77
2021/09/22 07:59:17;;;;;;;22.30;4.90;;;;;;;;;;5096037;28;20028;-77
2021/09/22 08:01:43;;;;;;;9.38;5.50;;;;;;;;;;5096662;28;20047;-80
2021/09/22 08:04:09;;;;;;;7.18;5.50;;;;;;;;;;5096929;28;20089;-78
2021/09/22 08:06:35;;;;;;;8.48;5.38;;;;;;;;;;5096257;28;20028;-77
2021/09/22 08:09:01;;;;;;;11.20;4.80;;;;;;;;;;5096856;28;20066;-78
2021/09/22 08:11:27;;;;;;;16.08;6.10;;;;;;;;;;5096367;28;20022;-79
2021/09/22 08:13:54;;;;;;;7.85;5.13;;;;;;;;;;5096732;28;20031;-77
2021/09/22 08:16:20;;;;;;;6.20;4.45;;;;;;;;;;5096905;28;20131;-77
2021/09/22 08:18:46;;;;;;;5.05;4.55;;;;;;;;;;5096815;28;20354;-78
2021/09/22 08:21:14;;;;;;;7.00;5.10;;;;;;;;;;5097610;28;20024;-78
2021/09/22 08:23:40;;;;;;;5.00;4.55;;;;;;;;;;5096987;28;20028;-78
2021/09/22 08:26:06;;;;;;;4.97;4.03;;;;;;;;;;5096123;28;20076;-79
2021/09/22 08:28:32;;;;;;;5.60;5.05;;;;;;;;;;5093691;28;20103;-83
2021/09/22 08:30:58;;;;;;;9.13;4.55;;;;;;;;;;5093399;28;20069;-80
2021/09/22 08:33:25;;;;;;;4.00;3.58;;;;;;;;;;5092819;28;20489;-80
2021/09/22 08:35:51;;;;;;;4.43;3.72;;;;;;;;;;5092860;28;20103;-79
2021/09/22 08:38:17;;;;;;;5.47;4.25;;;;;;;;;;5092985;28;20047;-83
2021/09/22 08:40:43;;;;;;;11.18;4.20;;;;;;;;;;5093243;28;20028;-78
2021/09/22 08:43:09;;;;;;;5.82;3.65;;;;;;;;;;5092636;28;20034;-80
2021/09/22 08:45:35;;;;;;;8.82;4.30;;;;;;;;;;5093172;28;20028;-80
2021/09/22 08:48:02;;;;;;;4.50;3.92;;;;;;;;;;5092378;28;20441;-79
2021/09/22 08:50:28;;;;;;;5.75;3.65;;;;;;;;;;5092523;28;20028;-80
2021/09/22 08:52:54;;;;;;;4.80;4.38;;;;;;;;;;5092985;28;20122;-82
2021/09/22 08:55:20;;;;;;;5.50;3.92;;;;;;;;;;5093209;28;20053;-80
2021/09/22 08:57:47;;;;;;;9.35;4.35;;;;;;;;;;5093135;28;20508;-78
2021/09/22 09:00:13;;;;;;;4.95;4.15;;;;;;;;;;5092551;28;20031;-77
2021/09/22 09:02:40;;;;;;;4.38;3.42;;;;;;;;;;5093627;28;20039;-76
2021/09/22 09:05:11;;;;;;;5.05;4.15;;;;;;;;;;5095903;28;20024;-79
2021/09/22 09:07:57;;;;;;;6.80;3.83;;;;;;;;;;5094205;28;20473;-78
2021/09/22 09:10:25;;;;;;;19.02;3.88;;;;;;;;;;5094303;28;20024;-76
2021/09/22 09:13:07;;;;;;;8.73;4.38;;;;;;;;;;5097987;28;20074;-78
2021/09/22 09:15:33;;;;;;;;;;;;;;;;;;5095116;28;20023;-75
2021/09/22 09:18:00;;;;;;;7.10;3.60;;;;;;;;;;5098458;28;19904;-78
2021/09/22 09:20:27;;;;;;;11.68;4.20;;;;;;;;;;5100246;28;20055;-79
2021/09/22 09:23:12;;;;;;;7.85;4.55;;;;;;;;;;5099023;28;20040;-80
2021/09/22 09:25:40;;;;;;;17.83;5.50;;;;;;;;;;5095370;28;20028;-83
2021/09/22 09:28:22;;;;;;;14.18;5.57;;;;;;;;;;5099119;28;20031;-77
2021/09/22 09:30:49;;;;;;;12.93;6.90;;;;;;;;;;5100788;28;20027;-78
2021/09/22 09:33:35;;;;;;;32.63;11.63;;;;;;;;;;5100117;28;20028;-80
2021/09/22 09:36:18;;;;;;;33.88;12.25;;;;;;;;;;5097835;28;20089;-75
2021/09/22 09:38:48;;;;;;;33.10;13.07;;;;;;;;;;5095401;28;20047;-78
2021/09/22 09:41:21;;;;;;;23.25;7.28;;;;;;;;;;5100324;28;20024;-90
2021/09/22 09:43:48;;;;;;;11.25;5.43;;;;;;;;;;5099796;28;20028;-84
2021/09/22 09:46:22;;;;;;;20.75;8.23;;;;;;;;;;5099555;28;20032;-84
2021/09/22 09:48:55;;;;;;;6.57;4.43;;;;;;;;;;5099555;28;20028;-76
2021/09/22 09:51:22;;;;;;;7.35;4.28;;;;;;;;;;5099770;28;20028;-76
2021/09/22 09:53:48;;;;;;;11.13;4.82;;;;;;;;;;5098754;28;20024;-77
2021/09/22 09:56:21;;;;;;;6.78;3.80;;;;;;;;;;5097714;28;20016;-75
2021/09/22 09:58:47;;;;;;;5.35;3.55;;;;;;;;;;5098812;28;20031;-76
2021/09/22 10:01:13;;;;;;;5.13;4.35;;;;;;;;;;5099396;28;20024;-76
2021/09/22 10:03:39;;;;;;;5.18;3.50;;;;;;;;;;5099279;28;20519;-76
2021/09/22 10:06:05;;;;;;;9.88;4.65;;;;;;;;;;5098615;28;20462;-75
2021/09/22 10:08:31;;;;;;;6.93;4.88;;;;;;;;;;5099181;28;20035;-76
2021/09/22 10:11:02;;;;;;;11.25;6.82;;;;;;;;;;5098642;28;20024;-75
2021/09/22 10:13:29;;;;;;;11.13;6.82;;;;;;;;;;5098852;28;20454;-76
2021/09/22 10:15:55;;;;;;;14.63;6.05;;;;;;;;;;5098803;28;20492;-76
2021/09/22 10:18:21;;;;;;;11.50;6.93;;;;;;;;;;5098819;28;20540;-77
2021/09/22 10:20:47;;;;;;;7.15;5.03;;;;;;;;;;5098607;28;20024;-76
2021/09/22 10:23:14;;;;;;;10.68;7.25;;;;;;;;;;5098611;28;20039;-76
2021/09/22 10:25:40;;;;;;;10.18;6.78;;;;;;;;;;5098620;28;20024;-76
2021/09/22 10:28:07;;;;;;;8.32;6.60;;;;;;;;;;5098306;28;20114;-76
2021/09/22 10:30:35;;;;;;;9.48;6.57;;;;;;;;;;5098476;28;20031;-76
2021/09/22 10:33:01;;;;;;;11.45;5.20;;;;;;;;;;5098667;28;20074;-79
2021/09/22 10:35:36;;;;;;;6.47;5.38;;;;;;;;;;5099108;28;20043;-78
2021/09/22 10:38:22;;;;;;;8.05;4.60;;;;;;;;;;5098365;28;20028;-76
2021/09/22 10:40:52;;;;;;;9.43;5.43;;;;;;;;;;5097666;28;20423;-77
2021/09/22 10:43:21;;;;;;;10.02;5.85;;;;;;;;;;5098884;28;20032;-78
2021/09/22 10:45:48;;;;;;;8.68;6.55;;;;;;;;;;5098685;28;20035;-77
2021/09/22 10:48:22;;;;;;;12.38;7.70;;;;;;;;;;5098283;28;20027;-78
2021/09/22 10:50:49;;;;;;;8.52;6.75;;;;;;;;;;5098242;28;20070;-77
2021/09/22 10:53:35;;;;;;;14.07;5.57;;;;;;;;;;5098014;28;20028;-77
2021/09/22 10:56:03;;;;;;;7.55;5.55;;;;;;;;;;5096806;28;20165;-76
2021/09/22 10:58:50;;;;;;;6.88;6.10;;;;;;;;;;5098435;28;20453;-77
2021/09/22 11:01:36;;;;;;;7.10;6.25;;;;;;;;;;5096892;28;20143;-77
2021/09/22 11:04:03;;;;;;;7.13;6.10;;;;;;;;;;5096836;28;20028;-76
2021/09/22 11:06:48;;;;;;;12.18;7.43;;;;;;;;;;5098322;28;20097;-77
2021/09/22 11:09:31;;;;;;;7.82;7.05;;;;;;;;;;5096913;28;20362;-77
2021/09/22 11:12:03;;;;;;;8.57;6.50;;;;;;;;;;5097785;28;20020;-77
2021/09/22 11:14:35;;;;;;;7.03;6.32;;;;;;;;;;5097908;28;20044;-77
2021/09/22 11:17:04;;;;;;;7.97;7.18;;;;;;;;;;5098272;28;20016;-77
2021/09/22 11:19:30;;;;;;;8.30;5.35;;;;;;;;;;5097271;28;20056;-77
2021/09/22 11:21:56;;;;;;;7.05;5.90;;;;;;;;;;5097085;28;20028;-77
2021/09/22 11:24:23;;;;;;;6.00;5.40;;;;;;;;;;5097542;28;20473;-76
2021/09/22 11:26:50;;;;;;;7.75;6.40;;;;;;;;;;5096978;28;20428;-77
2021/09/22 11:29:36;;;;;;;6.47;5.80;;;;;;;;;;5097396;28;20045;-76
2021/09/22 11:32:03;;;;;;;7.28;6.68;;;;;;;;;;5096580;28;20028;-75
2021/09/22 11:34:30;;;;;;;6.70;5.68;;;;;;;;;;5095833;28;20465;-77
2021/09/22 11:37:08;;;;;;;7.38;6.10;;;;;;;;;;5095783;28;20115;-77
2021/09/22 11:39:34;;;;;;;10.57;6.22;;;;;;;;;;5095746;28;20046;-77
2021/09/22 11:42:00;;;;;;;6.65;5.95;;;;;;;;;;5095695;28;20032;-78
2021/09/22 11:44:28;;;;;;;7.82;5.63;;;;;;;;;;5095309;28;20020;-77
2021/09/22 11:46:54;;;;;;;6.55;4.75;;;;;;;;;;5094467;28;20058;-81
2021/09/22 11:49:21;;;;;;;11.27;4.40;;;;;;;;;;5089437;28;20024;-76
2021/09/22 11:52:02;;;;;;;6.20;5.60;;;;;;;;;;5095805;28;20078;-75
2021/09/22 11:54:29;;;;;;;9.80;5.78;;;;;;;;;;5096122;28;20456;-74
2021/09/22 11:57:03;;;;;;;7.00;6.40;;;;;;;;;;5095031;28;20393;-71
2021/09/22 11:59:31;;;;;;;7.18;5.93;;;;;;;;;;5090512;28;20028;-73
2021/09/22 12:01:58;;;;;;;5.75;5.25;;;;;;;;;;5092620;28;20051;-72
2021/09/22 12:04:24;;;;;;;5.35;4.53;;;;;;;;;;5094066;28;20032;-73
2021/09/22 12:06:50;;;;;;;7.90;5.63;;;;;;;;;;5095035;28;20020;-73
2021/09/22 12:09:16;;;;;;;8.63;6.00;;;;;;;;;;5094218;28;20101;-72
2021/09/22 12:11:42;;;;;;;5.55;4.97;;;;;;;;;;5093112;28;20031;-74
2021/09/22 12:14:09;;;;;;;9.43;6.30;;;;;;;;;;5093902;28;20562;-74
2021/09/22 12:16:35;;;;;;;4.82;4.30;;;;;;;;;;5094318;28;20085;-74
2021/09/22 12:19:01;;;;;;;5.18;4.68;;;;;;;;;;5094554;28;20020;-72
2021/09/22 12:21:29;;;;;;;6.95;6.25;;;;;;;;;;5093048;28;20031;-72
2021/09/22 12:23:55;;;;;;;6.10;5.50;;;;;;;;;;5094215;28;20063;-72
2021/09/22 12:26:21;;;;;;;6.75;6.15;;;;;;;;;;5094155;28;20114;-75
2021/09/22 12:28:50;;;;;;;5.90;5.40;;;;;;;;;;5093383;28;20020;-75
2021/09/22 12:31:17;;;;;;;8.02;7.28;;;;;;;;;;5092139;28;20493;-71
2021/09/22 12:33:43;;;;;;;6.15;5.22;;;;;;;;;;5094129;28;20079;-72
2021/09/22 12:36:12;;;;;;;12.18;5.72;;;;;;;;;;5093571;28;20373;-73
2021/09/22 12:38:44;;;;;;;6.47;5.88;;;;;;;;;;5093303;28;20058;-72
2021/09/22 12:41:10;;;;;;;7.22;6.50;;;;;;;;;;5091507;28;20039;-71
2021/09/22 12:43:36;;;;;;;6.10;5.13;;;;;;;;;;5093272;28;20028;-72
2021/09/22 12:46:11;;;;;;;9.68;5.95;;;;;;;;;;5091044;28;20390;-72
2021/09/22 12:48:37;;;;;;;16.17;6.18;;;;;;;;;;5096708;28;20107;-72
2021/09/22 12:51:11;;;;;;;6.57;5.97;;;;;;;;;;5096124;28;20030;-72
2021/09/22 12:53:38;;;;;;;7.13;6.05;;;;;;;;;;5096792;28;20025;-72
2021/09/22 12:56:04;;;;;;;6.85;6.25;;;;;;;;;;5097020;28;20107;-72
2021/09/22 12:58:31;;;;;;;6.30;5.65;;;;;;;;;;5097042;28;20024;-72
2021/09/22 13:00:58;;;;;;;7.85;7.07;;;;;;;;;;5095258;28;20469;-74
2021/09/22 13:03:28;;;;;;;7.97;6.43;;;;;;;;;;5096940;28;20028;-74
2021/09/22 13:06:05;;;;;;;7.97;7.25;;;;;;;;;;5097299;28;20506;-74
2021/09/22 13:08:31;;;;;;;10.43;8.13;;;;;;;;;;5097129;28;20032;-73
2021/09/22 13:11:06;;;;;;;14.63;13.05;;;;;;;;;;5096004;28;20024;-74
2021/09/22 13:13:34;;;;;;;14.27;12.85;;;;;;;;;;5097529;28;20437;-72
2021/09/22 13:16:18;;;;;;;11.70;10.50;;;;;;;;;;5098009;28;20031;-72
2021/09/22 13:18:45;;;;;;;13.13;11.82;;;;;;;;;;5097509;28;20107;-72
2021/09/22 13:21:11;;;;;;;15.82;13.45;;;;;;;;;;5094903;28;20024;-73
2021/09/22 13:23:37;;;;;;;14.77;13.23;;;;;;;;;;5097367;28;20024;-73
2021/09/22 13:26:03;;;;;;;12.20;10.98;;;;;;;;;;5096285;28;20024;-78
2021/09/22 13:28:29;;;;;;;17.25;10.50;;;;;;;;;;5097154;28;20419;-78
2021/09/22 13:30:56;;;;;;;12.25;10.05;;;;;;;;;;5095410;28;20104;-75
2021/09/22 13:33:22;;;;;;;10.23;9.25;;;;;;;;;;5096943;28;20035;-77
2021/09/22 13:35:48;;;;;;;10.80;9.80;;;;;;;;;;5096528;28;20492;-75
2021/09/22 13:38:15;;;;;;;10.68;9.68;;;;;;;;;;5096528;28;20039;-77
2021/09/22 13:40:41;;;;;;;10.52;9.52;;;;;;;;;;5095188;28;20036;-76
2021/09/22 13:43:07;;;;;;;9.82;8.07;;;;;;;;;;5097042;28;20480;-76
2021/09/22 13:45:33;;;;;;;10.80;8.65;;;;;;;;;;5096139;28;20028;-78
2021/09/22 13:48:01;;;;;;;9.07;7.70;;;;;;;;;;5096440;28;20048;-77
2021/09/22 13:50:27;;;;;;;10.27;9.15;;;;;;;;;;5094651;28;20020;-75
2021/09/22 13:52:54;;;;;;;9.95;9.07;;;;;;;;;;5096261;28;20028;-74
2021/09/22 13:55:20;;;;;;;14.88;7.57;;;;;;;;;;5096103;28;20028;-77
2021/09/22 13:57:46;;;;;;;8.82;7.57;;;;;;;;;;5095730;28;20508;-74
2021/09/22 14:00:13;;;;;;;7.93;7.15;;;;;;;;;;5096035;28;20422;-79
2021/09/22 14:02:39;;;;;;;9.55;7.20;;;;;;;;;;5094848;28;20032;-84
2021/09/22 14:05:05;;;;;;;5.93;5.43;;;;;;;;;;5095022;28;20480;-79
2021/09/22 14:07:31;;;;;;;7.32;6.05;;;;;;;;;;5095900;28;20027;-77
2021/09/22 14:09:57;;;;;;;9.77;5.65;;;;;;;;;;5096205;28;20028;-76
2021/09/22 14:12:24;;;;;;;7.10;6.40;;;;;;;;;;5095166;28;20027;-77
2021/09/22 14:14:50;;;;;;;8.05;5.88;;;;;;;;;;5095996;28;20028;-77
2021/09/22 14:17:16;;;;;;;9.65;5.63;;;;;;;;;;5094705;28;20024;-76
2021/09/22 14:19:42;;;;;;;6.88;6.13;;;;;;;;;;5098455;28;20020;-78
2021/09/22 14:22:08;;;;;;;7.07;6.38;;;;;;;;;;5097431;28;20031;-80
2021/09/22 14:24:34;;;;;;;7.07;6.40;;;;;;;;;;5095153;28;20024;-76
2021/09/22 14:27:02;;;;;;;25.85;8.18;;;;;;;;;;5097128;28;20028;-73
2021/09/22 14:29:28;;;;;;;10.20;8.63;;;;;;;;;;5096832;28;20036;-78
2021/09/22 14:31:54;;;;;;;8.05;7.10;;;;;;;;;;5097670;28;20024;-74
2021/09/22 14:34:20;;;;;;;9.27;8.20;;;;;;;;;;5095102;28;20020;-74
2021/09/22 14:36:46;;;;;;;12.43;9.30;;;;;;;;;;5097352;28;20043;-72
2021/09/22 14:39:13;;;;;;;23.73;8.50;;;;;;;;;;5098222;28;20035;-72
2021/09/22 14:41:39;;;;;;;9.57;8.57;;;;;;;;;;5097806;28;20020;-72